sensor_id;sensor_type;location;lat;lon;timestamp;P1;durP1;ratioP1;P2;durP2;ratioP2
6977;SDS011;3529;53.244;10.414;2023-06-26T00:01:08;2.95;;;2.42;;
6977;SDS011;3529;53.244;10.414;2023-06-26T00:03:34;4.20;;;2.22;;
6977;SDS011;3529;53.244;10.414;2023-06-26T00:06:00;2.88;;;2.33;;
6977;SDS011;3529;53.244;10.414;2023-06-26T00:08:27;2.67;;;2.45;;
6977;SDS011;3529;53.244;10.414;2023-06-26T00:10:53;2.85;;;2.65;;
6977;SDS011;3529;53.244;10.414;2023-06-26T00:13:19;1.88;;;1.75;;
6977;SDS011;3529;53.244;10.414;2023-06-26T00:15:45;2.60;;;2.45;;
6977;SDS011;3529;53.244;10.414;2023-06-26T00:18:11;2.20;;;2.05;;
6977;SDS011;3529;53.244;10.414;2023-06-26T00:20:37;2.30;;;2.10;;
6977;SDS011;3529;53.244;10.414;2023-06-26T00:23:03;3.22;;;2.92;;
6977;SDS011;3529;53.244;10.414;2023-06-26T00:25:32;2.67;;;2.47;;
6977;SDS011;3529;53.244;10.414;2023-06-26T00:27:58;2.65;;;2.45;;
6977;SDS011;3529;53.244;10.414;2023-06-26T00:30:24;2.08;;;1.98;;
6977;SDS011;3529;53.244;10.414;2023-06-26T00:32:50;2.90;;;2.70;;
6977;SDS011;3529;53.244;10.414;2023-06-26T00:35:16;3.40;;;3.10;;
6977;SDS011;3529;53.244;10.414;2023-06-26T00:37:42;3.13;;;2.92;;
6977;SDS011;3529;53.244;10.414;2023-06-26T00:40:08;2.28;;;2.08;;
6977;SDS011;3529;53.244;10.414;2023-06-26T00:42:34;2.35;;;2.25;;
6977;SDS011;3529;53.244;10.414;2023-06-26T00:45:00;2.00;;;1.90;;
6977;SDS011;3529;53.244;10.414;2023-06-26T00:47:27;2.95;;;2.22;;
6977;SDS011;3529;53.244;10.414;2023-06-26T00:49:53;2.40;;;2.13;;
6977;SDS011;3529;53.244;10.414;2023-06-26T00:52:20;2.20;;;2.10;;
6977;SDS011;3529;53.244;10.414;2023-06-26T00:54:46;3.78;;;2.72;;
6977;SDS011;3529;53.244;10.414;2023-06-26T00:57:12;2.80;;;2.60;;
6977;SDS011;3529;53.244;10.414;2023-06-26T00:59:38;2.92;;;2.30;;
6977;SDS011;3529;53.244;10.414;2023-06-26T01:02:04;2.15;;;2.05;;
6977;SDS011;3529;53.244;10.414;2023-06-26T01:04:31;1.98;;;1.88;;
6977;SDS011;3529;53.244;10.414;2023-06-26T01:06:57;2.55;;;2.38;;
6977;SDS011;3529;53.244;10.414;2023-06-26T01:09:24;2.30;;;2.20;;
6977;SDS011;3529;53.244;10.414;2023-06-26T01:11:51;2.13;;;1.92;;
6977;SDS011;3529;53.244;10.414;2023-06-26T01:14:17;1.83;;;1.73;;
6977;SDS011;3529;53.244;10.414;2023-06-26T01:16:43;2.75;;;2.55;;
6977;SDS011;3529;53.244;10.414;2023-06-26T01:19:16;2.33;;;2.13;;
6977;SDS011;3529;53.244;10.414;2023-06-26T01:21:49;2.28;;;2.08;;
6977;SDS011;3529;53.244;10.414;2023-06-26T01:24:17;2.13;;;1.95;;
6977;SDS011;3529;53.244;10.414;2023-06-26T01:26:52;3.25;;;3.08;;
6977;SDS011;3529;53.244;10.414;2023-06-26T01:29:19;2.78;;;2.28;;
6977;SDS011;3529;53.244;10.414;2023-06-26T01:31:48;2.85;;;2.65;;
6977;SDS011;3529;53.244;10.414;2023-06-26T01:34:17;2.30;;;2.20;;
6977;SDS011;3529;53.244;10.414;2023-06-26T01:36:44;2.50;;;2.28;;
6977;SDS011;3529;53.244;10.414;2023-06-26T01:39:10;2.72;;;2.58;;
6977;SDS011;3529;53.244;10.414;2023-06-26T01:41:36;1.98;;;1.88;;
6977;SDS011;3529;53.244;10.414;2023-06-26T01:51:42;2.15;;;2.03;;
6977;SDS011;3529;53.244;10.414;2023-06-26T01:54:13;2.88;;;2.67;;
6977;SDS011;3529;53.244;10.414;2023-06-26T01:56:40;3.35;;;3.05;;
6977;SDS011;3529;53.244;10.414;2023-06-26T01:59:08;1.83;;;1.73;;
6977;SDS011;3529;53.244;10.414;2023-06-26T02:01:34;3.33;;;2.67;;
6977;SDS011;3529;53.244;10.414;2023-06-26T02:04:01;1.67;;;1.60;;
6977;SDS011;3529;53.244;10.414;2023-06-26T02:06:27;2.20;;;2.10;;
6977;SDS011;3529;53.244;10.414;2023-06-26T02:08:53;3.10;;;2.63;;
6977;SDS011;3529;53.244;10.414;2023-06-26T02:11:21;2.33;;;2.22;;
6977;SDS011;3529;53.244;10.414;2023-06-26T02:13:47;2.03;;;1.92;;
6977;SDS011;3529;53.244;10.414;2023-06-26T02:16:13;1.80;;;1.70;;
6977;SDS011;3529;53.244;10.414;2023-06-26T02:18:39;2.97;;;2.72;;
6977;SDS011;3529;53.244;10.414;2023-06-26T02:21:06;1.95;;;1.85;;
6977;SDS011;3529;53.244;10.414;2023-06-26T02:23:32;2.47;;;2.28;;
6977;SDS011;3529;53.244;10.414;2023-06-26T02:25:58;3.17;;;2.97;;
6977;SDS011;3529;53.244;10.414;2023-06-26T02:28:24;2.90;;;2.65;;
6977;SDS011;3529;53.244;10.414;2023-06-26T02:30:50;2.03;;;1.92;;
6977;SDS011;3529;53.244;10.414;2023-06-26T02:33:16;3.55;;;3.25;;
6977;SDS011;3529;53.244;10.414;2023-06-26T02:35:42;2.95;;;2.75;;
6977;SDS011;3529;53.244;10.414;2023-06-26T02:38:08;2.75;;;2.55;;
6977;SDS011;3529;53.244;10.414;2023-06-26T02:40:35;3.33;;;3.05;;
6977;SDS011;3529;53.244;10.414;2023-06-26T02:43:01;2.28;;;2.17;;
6977;SDS011;3529;53.244;10.414;2023-06-26T02:45:27;2.10;;;1.98;;
6977;SDS011;3529;53.244;10.414;2023-06-26T02:47:53;1.85;;;1.75;;
6977;SDS011;3529;53.244;10.414;2023-06-26T02:50:19;2.53;;;2.40;;
6977;SDS011;3529;53.244;10.414;2023-06-26T02:52:45;2.45;;;2.35;;
6977;SDS011;3529;53.244;10.414;2023-06-26T02:55:13;2.42;;;2.03;;
6977;SDS011;3529;53.244;10.414;2023-06-26T02:57:39;2.67;;;2.25;;
6977;SDS011;3529;53.244;10.414;2023-06-26T03:00:05;1.70;;;1.60;;
6977;SDS011;3529;53.244;10.414;2023-06-26T03:02:33;2.50;;;2.10;;
6977;SDS011;3529;53.244;10.414;2023-06-26T03:04:59;2.22;;;2.13;;
6977;SDS011;3529;53.244;10.414;2023-06-26T03:07:25;2.25;;;2.15;;
6977;SDS011;3529;53.244;10.414;2023-06-26T03:09:51;1.83;;;1.73;;
6977;SDS011;3529;53.244;10.414;2023-06-26T03:12:17;2.28;;;2.15;;
6977;SDS011;3529;53.244;10.414;2023-06-26T03:14:43;2.00;;;1.90;;
6977;SDS011;3529;53.244;10.414;2023-06-26T03:17:09;2.05;;;1.95;;
6977;SDS011;3529;53.244;10.414;2023-06-26T03:19:35;2.00;;;1.90;;
6977;SDS011;3529;53.244;10.414;2023-06-26T03:22:01;1.73;;;1.65;;
6977;SDS011;3529;53.244;10.414;2023-06-26T03:24:28;2.65;;;2.42;;
6977;SDS011;3529;53.244;10.414;2023-06-26T03:26:54;3.17;;;2.72;;
6977;SDS011;3529;53.244;10.414;2023-06-26T03:29:20;1.73;;;1.63;;
6977;SDS011;3529;53.244;10.414;2023-06-26T03:31:46;1.80;;;1.70;;
6977;SDS011;3529;53.244;10.414;2023-06-26T03:34:12;2.03;;;1.92;;
6977;SDS011;3529;53.244;10.414;2023-06-26T03:36:38;2.83;;;2.63;;
6977;SDS011;3529;53.244;10.414;2023-06-26T03:39:04;2.10;;;2.00;;
6977;SDS011;3529;53.244;10.414;2023-06-26T03:41:30;2.33;;;2.22;;
6977;SDS011;3529;53.244;10.414;2023-06-26T03:43:56;1.77;;;1.70;;
6977;SDS011;3529;53.244;10.414;2023-06-26T03:46:22;2.58;;;2.38;;
6977;SDS011;3529;53.244;10.414;2023-06-26T03:48:48;3.15;;;2.60;;
6977;SDS011;3529;53.244;10.414;2023-06-26T03:51:14;2.17;;;2.08;;
6977;SDS011;3529;53.244;10.414;2023-06-26T03:53:40;2.13;;;2.00;;
6977;SDS011;3529;53.244;10.414;2023-06-26T03:56:06;1.80;;;1.70;;
6977;SDS011;3529;53.244;10.414;2023-06-26T03:58:32;2.13;;;2.03;;
6977;SDS011;3529;53.244;10.414;2023-06-26T04:00:58;2.53;;;2.38;;
6977;SDS011;3529;53.244;10.414;2023-06-26T04:03:25;1.98;;;1.88;;
6977;SDS011;3529;53.244;10.414;2023-06-26T04:05:51;1.85;;;1.75;;
6977;SDS011;3529;53.244;10.414;2023-06-26T04:08:17;2.47;;;2.28;;
6977;SDS011;3529;53.244;10.414;2023-06-26T04:10:44;2.05;;;1.95;;
6977;SDS011;3529;53.244;10.414;2023-06-26T04:13:12;1.92;;;1.83;;
6977;SDS011;3529;53.244;10.414;2023-06-26T04:15:39;2.40;;;2.25;;
6977;SDS011;3529;53.244;10.414;2023-06-26T04:18:05;2.03;;;1.90;;
6977;SDS011;3529;53.244;10.414;2023-06-26T04:20:31;2.95;;;2.20;;
6977;SDS011;3529;53.244;10.414;2023-06-26T04:22:58;2.13;;;2.00;;
6977;SDS011;3529;53.244;10.414;2023-06-26T04:25:24;2.10;;;2.00;;
6977;SDS011;3529;53.244;10.414;2023-06-26T04:27:54;2.08;;;1.98;;
6977;SDS011;3529;53.244;10.414;2023-06-26T04:30:20;5.53;;;2.60;;
6977;SDS011;3529;53.244;10.414;2023-06-26T04:32:46;2.35;;;2.15;;
6977;SDS011;3529;53.244;10.414;2023-06-26T04:35:12;2.55;;;2.35;;
6977;SDS011;3529;53.244;10.414;2023-06-26T04:37:38;1.90;;;1.80;;
6977;SDS011;3529;53.244;10.414;2023-06-26T04:40:05;2.03;;;1.90;;
6977;SDS011;3529;53.244;10.414;2023-06-26T04:42:32;1.77;;;1.67;;
6977;SDS011;3529;53.244;10.414;2023-06-26T04:44:58;1.83;;;1.73;;
6977;SDS011;3529;53.244;10.414;2023-06-26T04:47:24;2.53;;;2.33;;
6977;SDS011;3529;53.244;10.414;2023-06-26T04:49:50;1.73;;;1.63;;
6977;SDS011;3529;53.244;10.414;2023-06-26T04:52:16;2.13;;;2.03;;
6977;SDS011;3529;53.244;10.414;2023-06-26T04:54:42;2.95;;;2.38;;
6977;SDS011;3529;53.244;10.414;2023-06-26T04:57:08;1.77;;;1.67;;
6977;SDS011;3529;53.244;10.414;2023-06-26T04:59:34;8.30;;;5.63;;
6977;SDS011;3529;53.244;10.414;2023-06-26T05:02:00;5.78;;;4.60;;
6977;SDS011;3529;53.244;10.414;2023-06-26T05:04:26;7.88;;;6.00;;
6977;SDS011;3529;53.244;10.414;2023-06-26T05:06:52;3.58;;;3.30;;
6977;SDS011;3529;53.244;10.414;2023-06-26T05:09:18;1.70;;;1.60;;
6977;SDS011;3529;53.244;10.414;2023-06-26T05:11:44;1.85;;;1.75;;
6977;SDS011;3529;53.244;10.414;2023-06-26T05:14:10;1.80;;;1.70;;
6977;SDS011;3529;53.244;10.414;2023-06-26T05:16:38;2.08;;;1.98;;
6977;SDS011;3529;53.244;10.414;2023-06-26T05:19:04;2.42;;;1.88;;
6977;SDS011;3529;53.244;10.414;2023-06-26T05:21:30;2.45;;;2.03;;
6977;SDS011;3529;53.244;10.414;2023-06-26T05:23:56;1.40;;;1.30;;
6977;SDS011;3529;53.244;10.414;2023-06-26T05:26:23;2.00;;;1.90;;
6977;SDS011;3529;53.244;10.414;2023-06-26T05:28:49;1.73;;;1.63;;
6977;SDS011;3529;53.244;10.414;2023-06-26T05:31:15;3.15;;;2.85;;
6977;SDS011;3529;53.244;10.414;2023-06-26T05:33:43;1.70;;;1.60;;
6977;SDS011;3529;53.244;10.414;2023-06-26T05:36:10;2.50;;;2.15;;
6977;SDS011;3529;53.244;10.414;2023-06-26T05:38:38;2.38;;;2.17;;
6977;SDS011;3529;53.244;10.414;2023-06-26T05:41:05;1.55;;;1.45;;
6977;SDS011;3529;53.244;10.414;2023-06-26T05:43:31;2.53;;;2.33;;
6977;SDS011;3529;53.244;10.414;2023-06-26T05:45:57;2.25;;;2.05;;
6977;SDS011;3529;53.244;10.414;2023-06-26T05:48:23;2.35;;;2.15;;
6977;SDS011;3529;53.244;10.414;2023-06-26T05:50:49;1.80;;;1.70;;
6977;SDS011;3529;53.244;10.414;2023-06-26T05:53:15;1.58;;;1.50;;
6977;SDS011;3529;53.244;10.414;2023-06-26T05:55:41;2.13;;;1.98;;
6977;SDS011;3529;53.244;10.414;2023-06-26T05:58:09;1.52;;;1.42;;
6977;SDS011;3529;53.244;10.414;2023-06-26T06:00:36;1.38;;;1.38;;
6977;SDS011;3529;53.244;10.414;2023-06-26T06:03:02;1.80;;;1.70;;
6977;SDS011;3529;53.244;10.414;2023-06-26T06:05:28;2.17;;;1.98;;
6977;SDS011;3529;53.244;10.414;2023-06-26T06:07:54;1.65;;;1.55;;
6977;SDS011;3529;53.244;10.414;2023-06-26T06:10:20;1.67;;;1.58;;
6977;SDS011;3529;53.244;10.414;2023-06-26T06:12:46;2.20;;;2.00;;
6977;SDS011;3529;53.244;10.414;2023-06-26T06:15:12;2.53;;;2.33;;
6977;SDS011;3529;53.244;10.414;2023-06-26T06:17:38;1.83;;;1.73;;
6977;SDS011;3529;53.244;10.414;2023-06-26T06:20:04;2.10;;;2.00;;
6977;SDS011;3529;53.244;10.414;2023-06-26T06:22:31;1.98;;;1.83;;
6977;SDS011;3529;53.244;10.414;2023-06-26T06:24:57;1.95;;;1.77;;
6977;SDS011;3529;53.244;10.414;2023-06-26T06:27:23;1.75;;;1.65;;
6977;SDS011;3529;53.244;10.414;2023-06-26T06:29:49;1.42;;;1.35;;
6977;SDS011;3529;53.244;10.414;2023-06-26T06:32:15;2.38;;;2.17;;
6977;SDS011;3529;53.244;10.414;2023-06-26T06:34:41;1.70;;;1.60;;
6977;SDS011;3529;53.244;10.414;2023-06-26T06:37:07;2.17;;;2.08;;
6977;SDS011;3529;53.244;10.414;2023-06-26T06:39:33;3.47;;;2.70;;
6977;SDS011;3529;53.244;10.414;2023-06-26T06:41:59;5.32;;;3.80;;
6977;SDS011;3529;53.244;10.414;2023-06-26T06:44:25;3.35;;;2.17;;
6977;SDS011;3529;53.244;10.414;2023-06-26T06:46:51;2.20;;;2.00;;
6977;SDS011;3529;53.244;10.414;2023-06-26T06:49:18;2.15;;;2.05;;
6977;SDS011;3529;53.244;10.414;2023-06-26T06:51:44;2.15;;;2.03;;
6977;SDS011;3529;53.244;10.414;2023-06-26T06:54:10;1.52;;;1.42;;
6977;SDS011;3529;53.244;10.414;2023-06-26T06:56:36;2.20;;;2.10;;
6977;SDS011;3529;53.244;10.414;2023-06-26T06:59:02;1.85;;;1.75;;
6977;SDS011;3529;53.244;10.414;2023-06-26T07:01:28;9.35;;;2.30;;
6977;SDS011;3529;53.244;10.414;2023-06-26T07:03:54;1.65;;;1.52;;
6977;SDS011;3529;53.244;10.414;2023-06-26T07:06:20;1.40;;;1.33;;
6977;SDS011;3529;53.244;10.414;2023-06-26T07:08:46;1.55;;;1.48;;
6977;SDS011;3529;53.244;10.414;2023-06-26T07:11:12;1.70;;;1.60;;
6977;SDS011;3529;53.244;10.414;2023-06-26T07:13:38;1.42;;;1.33;;
6977;SDS011;3529;53.244;10.414;2023-06-26T07:16:04;1.40;;;1.40;;
6977;SDS011;3529;53.244;10.414;2023-06-26T07:18:30;1.85;;;1.70;;
6977;SDS011;3529;53.244;10.414;2023-06-26T07:20:56;1.80;;;1.70;;
6977;SDS011;3529;53.244;10.414;2023-06-26T07:23:22;1.83;;;1.70;;
6977;SDS011;3529;53.244;10.414;2023-06-26T07:25:48;1.80;;;1.40;;
6977;SDS011;3529;53.244;10.414;2023-06-26T07:28:14;2.05;;;1.92;;
6977;SDS011;3529;53.244;10.414;2023-06-26T07:30:41;1.70;;;1.60;;
6977;SDS011;3529;53.244;10.414;2023-06-26T07:33:07;1.45;;;1.35;;
6977;SDS011;3529;53.244;10.414;2023-06-26T07:35:33;1.27;;;1.25;;
6977;SDS011;3529;53.244;10.414;2023-06-26T07:37:59;2.17;;;1.88;;
6977;SDS011;3529;53.244;10.414;2023-06-26T07:40:25;1.75;;;1.40;;
6977;SDS011;3529;53.244;10.414;2023-06-26T07:42:52;2.83;;;2.25;;
6977;SDS011;3529;53.244;10.414;2023-06-26T07:45:19;1.50;;;1.40;;
6977;SDS011;3529;53.244;10.414;2023-06-26T07:47:45;1.42;;;1.33;;
6977;SDS011;3529;53.244;10.414;2023-06-26T07:50:11;1.80;;;1.70;;
6977;SDS011;3529;53.244;10.414;2023-06-26T07:52:37;2.28;;;1.88;;
6977;SDS011;3529;53.244;10.414;2023-06-26T07:55:03;1.52;;;1.42;;
6977;SDS011;3529;53.244;10.414;2023-06-26T07:57:29;1.88;;;1.77;;
6977;SDS011;3529;53.244;10.414;2023-06-26T07:59:57;1.20;;;1.10;;
6977;SDS011;3529;53.244;10.414;2023-06-26T08:02:23;2.00;;;1.90;;
6977;SDS011;3529;53.244;10.414;2023-06-26T08:04:49;1.88;;;1.77;;
6977;SDS011;3529;53.244;10.414;2023-06-26T08:07:15;1.73;;;1.63;;
6977;SDS011;3529;53.244;10.414;2023-06-26T08:09:41;1.52;;;1.42;;
6977;SDS011;3529;53.244;10.414;2023-06-26T08:12:07;1.77;;;1.67;;
6977;SDS011;3529;53.244;10.414;2023-06-26T08:14:33;2.70;;;1.80;;
6977;SDS011;3529;53.244;10.414;2023-06-26T08:16:59;2.08;;;1.70;;
6977;SDS011;3529;53.244;10.414;2023-06-26T08:19:25;1.73;;;1.58;;
6977;SDS011;3529;53.244;10.414;2023-06-26T08:21:51;2.60;;;1.70;;
6977;SDS011;3529;53.244;10.414;2023-06-26T08:24:17;2.42;;;1.73;;
6977;SDS011;3529;53.244;10.414;2023-06-26T08:26:44;1.85;;;1.58;;
6977;SDS011;3529;53.244;10.414;2023-06-26T08:29:11;2.10;;;1.50;;
6977;SDS011;3529;53.244;10.414;2023-06-26T08:31:37;1.45;;;1.35;;
6977;SDS011;3529;53.244;10.414;2023-06-26T08:34:03;1.90;;;1.67;;
6977;SDS011;3529;53.244;10.414;2023-06-26T08:36:30;1.58;;;1.48;;
6977;SDS011;3529;53.244;10.414;2023-06-26T08:38:56;1.75;;;1.65;;
6977;SDS011;3529;53.244;10.414;2023-06-26T08:41:22;1.65;;;1.55;;
6977;SDS011;3529;53.244;10.414;2023-06-26T08:43:48;2.10;;;1.67;;
6977;SDS011;3529;53.244;10.414;2023-06-26T08:46:16;1.73;;;1.63;;
6977;SDS011;3529;53.244;10.414;2023-06-26T08:48:42;1.65;;;1.55;;
6977;SDS011;3529;53.244;10.414;2023-06-26T08:51:14;1.23;;;1.23;;
6977;SDS011;3529;53.244;10.414;2023-06-26T08:54:00;2.40;;;2.20;;
6977;SDS011;3529;53.244;10.414;2023-06-26T08:56:37;1.73;;;1.63;;
6977;SDS011;3529;53.244;10.414;2023-06-26T08:59:05;2.42;;;2.10;;
6977;SDS011;3529;53.244;10.414;2023-06-26T09:01:32;3.70;;;2.70;;
6977;SDS011;3529;53.244;10.414;2023-06-26T09:03:58;1.65;;;1.55;;
6977;SDS011;3529;53.244;10.414;2023-06-26T09:06:24;1.60;;;1.50;;
6977;SDS011;3529;53.244;10.414;2023-06-26T09:08:50;1.45;;;1.35;;
6977;SDS011;3529;53.244;10.414;2023-06-26T09:11:16;1.83;;;1.73;;
6977;SDS011;3529;53.244;10.414;2023-06-26T09:13:42;1.88;;;1.77;;
6977;SDS011;3529;53.244;10.414;2023-06-26T09:16:09;2.60;;;2.22;;
6977;SDS011;3529;53.244;10.414;2023-06-26T09:18:35;1.58;;;1.48;;
6977;SDS011;3529;53.244;10.414;2023-06-26T09:21:10;1.60;;;1.50;;
6977;SDS011;3529;53.244;10.414;2023-06-26T09:23:37;1.85;;;1.75;;
6977;SDS011;3529;53.244;10.414;2023-06-26T09:26:05;1.65;;;1.52;;
6977;SDS011;3529;53.244;10.414;2023-06-26T09:28:32;1.55;;;1.45;;
6977;SDS011;3529;53.244;10.414;2023-06-26T09:31:04;2.28;;;1.52;;
6977;SDS011;3529;53.244;10.414;2023-06-26T09:33:34;1.92;;;1.80;;
6977;SDS011;3529;53.244;10.414;2023-06-26T09:36:06;1.88;;;1.70;;
6977;SDS011;3529;53.244;10.414;2023-06-26T09:38:34;1.80;;;1.70;;
6977;SDS011;3529;53.244;10.414;2023-06-26T09:41:01;1.75;;;1.63;;
6977;SDS011;3529;53.244;10.414;2023-06-26T09:43:27;1.55;;;1.45;;
6977;SDS011;3529;53.244;10.414;2023-06-26T09:45:53;1.63;;;1.52;;
6977;SDS011;3529;53.244;10.414;2023-06-26T09:48:20;1.55;;;1.45;;
6977;SDS011;3529;53.244;10.414;2023-06-26T09:50:46;1.77;;;1.67;;
6977;SDS011;3529;53.244;10.414;2023-06-26T09:53:13;2.50;;;2.30;;
6977;SDS011;3529;53.244;10.414;2023-06-26T09:55:39;2.67;;;1.95;;
6977;SDS011;3529;53.244;10.414;2023-06-26T09:58:10;1.90;;;1.73;;
6977;SDS011;3529;53.244;10.414;2023-06-26T10:00:39;1.83;;;1.73;;
6977;SDS011;3529;53.244;10.414;2023-06-26T10:03:06;1.60;;;1.50;;
6977;SDS011;3529;53.244;10.414;2023-06-26T10:05:33;1.95;;;1.85;;
6977;SDS011;3529;53.244;10.414;2023-06-26T10:07:59;2.88;;;2.28;;
6977;SDS011;3529;53.244;10.414;2023-06-26T10:10:26;2.47;;;2.08;;
6977;SDS011;3529;53.244;10.414;2023-06-26T10:12:54;3.05;;;2.55;;
6977;SDS011;3529;53.244;10.414;2023-06-26T10:15:21;1.90;;;1.80;;
6977;SDS011;3529;53.244;10.414;2023-06-26T10:17:48;3.55;;;1.98;;
6977;SDS011;3529;53.244;10.414;2023-06-26T10:20:15;2.47;;;1.83;;
6977;SDS011;3529;53.244;10.414;2023-06-26T10:22:45;2.47;;;2.28;;
6977;SDS011;3529;53.244;10.414;2023-06-26T10:25:12;3.28;;;2.35;;
6977;SDS011;3529;53.244;10.414;2023-06-26T10:27:41;2.67;;;2.47;;
6977;SDS011;3529;53.244;10.414;2023-06-26T10:30:09;2.97;;;2.40;;
6977;SDS011;3529;53.244;10.414;2023-06-26T10:32:37;2.10;;;2.00;;
6977;SDS011;3529;53.244;10.414;2023-06-26T10:35:05;2.22;;;2.03;;
6977;SDS011;3529;53.244;10.414;2023-06-26T10:37:44;1.98;;;1.77;;
6977;SDS011;3529;53.244;10.414;2023-06-26T10:40:11;2.88;;;2.40;;
6977;SDS011;3529;53.244;10.414;2023-06-26T10:42:38;1.95;;;1.85;;
6977;SDS011;3529;53.244;10.414;2023-06-26T10:45:14;2.22;;;2.03;;
6977;SDS011;3529;53.244;10.414;2023-06-26T10:47:41;2.60;;;2.30;;
6977;SDS011;3529;53.244;10.414;2023-06-26T10:53:06;1.60;;;1.50;;
6977;SDS011;3529;53.244;10.414;2023-06-26T10:55:36;1.70;;;1.60;;
6977;SDS011;3529;53.244;10.414;2023-06-26T10:58:03;1.42;;;1.35;;
6977;SDS011;3529;53.244;10.414;2023-06-26T11:00:29;1.10;;;1.00;;
6977;SDS011;3529;53.244;10.414;2023-06-26T11:02:55;1.17;;;1.17;;
6977;SDS011;3529;53.244;10.414;2023-06-26T11:05:32;2.72;;;1.50;;
6977;SDS011;3529;53.244;10.414;2023-06-26T11:08:09;1.02;;;1.02;;
6977;SDS011;3529;53.244;10.414;2023-06-26T11:10:53;1.63;;;1.55;;
6977;SDS011;3529;53.244;10.414;2023-06-26T11:13:21;5.97;;;1.83;;
6977;SDS011;3529;53.244;10.414;2023-06-26T11:15:47;1.75;;;1.65;;
6977;SDS011;3529;53.244;10.414;2023-06-26T11:18:14;4.75;;;1.88;;
6977;SDS011;3529;53.244;10.414;2023-06-26T11:20:40;3.30;;;1.83;;
6977;SDS011;3529;53.244;10.414;2023-06-26T11:23:07;1.20;;;1.20;;
6977;SDS011;3529;53.244;10.414;2023-06-26T11:25:34;2.10;;;2.00;;
6977;SDS011;3529;53.244;10.414;2023-06-26T11:28:01;1.67;;;1.50;;
6977;SDS011;3529;53.244;10.414;2023-06-26T11:30:27;2.13;;;2.03;;
6977;SDS011;3529;53.244;10.414;2023-06-26T11:33:01;1.40;;;1.40;;
6977;SDS011;3529;53.244;10.414;2023-06-26T11:35:27;1.92;;;1.83;;
6977;SDS011;3529;53.244;10.414;2023-06-26T11:37:57;1.95;;;1.85;;
6977;SDS011;3529;53.244;10.414;2023-06-26T11:40:29;1.80;;;1.70;;
6977;SDS011;3529;53.244;10.414;2023-06-26T11:42:59;2.55;;;2.20;;
6977;SDS011;3529;53.244;10.414;2023-06-26T11:45:29;2.10;;;1.95;;
6977;SDS011;3529;53.244;10.414;2023-06-26T11:47:59;2.20;;;2.00;;
6977;SDS011;3529;53.244;10.414;2023-06-26T11:50:25;2.08;;;1.98;;
6977;SDS011;3529;53.244;10.414;2023-06-26T11:52:57;2.97;;;2.70;;
6977;SDS011;3529;53.244;10.414;2023-06-26T11:55:24;2.67;;;1.98;;
6977;SDS011;3529;53.244;10.414;2023-06-26T11:57:50;2.20;;;2.10;;
6977;SDS011;3529;53.244;10.414;2023-06-26T12:00:18;3.38;;;2.28;;
6977;SDS011;3529;53.244;10.414;2023-06-26T12:02:45;1.85;;;1.75;;
6977;SDS011;3529;53.244;10.414;2023-06-26T12:05:11;1.67;;;1.58;;
6977;SDS011;3529;53.244;10.414;2023-06-26T12:07:38;2.30;;;2.15;;
6977;SDS011;3529;53.244;10.414;2023-06-26T12:10:05;2.53;;;2.30;;
6977;SDS011;3529;53.244;10.414;2023-06-26T12:12:31;1.63;;;1.52;;
6977;SDS011;3529;53.244;10.414;2023-06-26T12:14:58;1.27;;;1.27;;
6977;SDS011;3529;53.244;10.414;2023-06-26T12:17:25;1.25;;;1.25;;
6977;SDS011;3529;53.244;10.414;2023-06-26T12:19:51;2.13;;;1.95;;
6977;SDS011;3529;53.244;10.414;2023-06-26T12:22:18;4.45;;;2.40;;
6977;SDS011;3529;53.244;10.414;2023-06-26T12:24:44;1.83;;;1.73;;
6977;SDS011;3529;53.244;10.414;2023-06-26T12:27:12;1.88;;;1.27;;
6977;SDS011;3529;53.244;10.414;2023-06-26T12:29:39;1.88;;;1.35;;
6977;SDS011;3529;53.244;10.414;2023-06-26T12:32:09;1.50;;;1.38;;
6977;SDS011;3529;53.244;10.414;2023-06-26T12:34:36;1.73;;;1.38;;
6977;SDS011;3529;53.244;10.414;2023-06-26T12:37:04;1.15;;;1.15;;
6977;SDS011;3529;53.244;10.414;2023-06-26T12:39:44;1.52;;;1.42;;
6977;SDS011;3529;53.244;10.414;2023-06-26T12:42:12;1.15;;;1.15;;
6977;SDS011;3529;53.244;10.414;2023-06-26T12:44:39;1.20;;;1.10;;
6977;SDS011;3529;53.244;10.414;2023-06-26T12:47:05;1.52;;;1.42;;
6977;SDS011;3529;53.244;10.414;2023-06-26T12:49:39;1.95;;;1.45;;
6977;SDS011;3529;53.244;10.414;2023-06-26T12:52:07;3.65;;;3.13;;
6977;SDS011;3529;53.244;10.414;2023-06-26T12:54:37;1.35;;;1.25;;
6977;SDS011;3529;53.244;10.414;2023-06-26T12:57:04;0.90;;;0.90;;
6977;SDS011;3529;53.244;10.414;2023-06-26T12:59:30;1.65;;;1.55;;
6977;SDS011;3529;53.244;10.414;2023-06-26T13:01:56;1.00;;;1.00;;
6977;SDS011;3529;53.244;10.414;2023-06-26T13:04:23;0.90;;;0.90;;
6977;SDS011;3529;53.244;10.414;2023-06-26T13:06:49;1.30;;;1.13;;
6977;SDS011;3529;53.244;10.414;2023-06-26T13:09:15;3.47;;;1.00;;
6977;SDS011;3529;53.244;10.414;2023-06-26T13:11:41;1.20;;;1.00;;
6977;SDS011;3529;53.244;10.414;2023-06-26T13:14:07;1.25;;;1.15;;
6977;SDS011;3529;53.244;10.414;2023-06-26T13:16:33;0.98;;;0.98;;
6977;SDS011;3529;53.244;10.414;2023-06-26T13:18:59;1.02;;;1.02;;
6977;SDS011;3529;53.244;10.414;2023-06-26T13:21:27;0.88;;;0.88;;
6977;SDS011;3529;53.244;10.414;2023-06-26T13:23:53;1.20;;;1.20;;
6977;SDS011;3529;53.244;10.414;2023-06-26T13:26:20;1.42;;;1.08;;
6977;SDS011;3529;53.244;10.414;2023-06-26T13:28:50;0.90;;;0.90;;
6977;SDS011;3529;53.244;10.414;2023-06-26T13:31:16;3.92;;;0.90;;
6977;SDS011;3529;53.244;10.414;2023-06-26T13:33:42;1.70;;;1.20;;
6977;SDS011;3529;53.244;10.414;2023-06-26T13:36:09;0.90;;;0.90;;
6977;SDS011;3529;53.244;10.414;2023-06-26T13:38:35;0.70;;;0.70;;
6977;SDS011;3529;53.244;10.414;2023-06-26T13:41:02;1.00;;;1.00;;
6977;SDS011;3529;53.244;10.414;2023-06-26T13:43:28;1.65;;;1.13;;
6977;SDS011;3529;53.244;10.414;2023-06-26T13:45:54;1.00;;;1.00;;
6977;SDS011;3529;53.244;10.414;2023-06-26T13:48:21;1.67;;;1.30;;
6977;SDS011;3529;53.244;10.414;2023-06-26T13:50:49;1.50;;;1.40;;
6977;SDS011;3529;53.244;10.414;2023-06-26T13:53:15;1.33;;;1.23;;
6977;SDS011;3529;53.244;10.414;2023-06-26T13:55:42;2.10;;;0.93;;
6977;SDS011;3529;53.244;10.414;2023-06-26T13:58:08;1.20;;;1.20;;
6977;SDS011;3529;53.244;10.414;2023-06-26T14:00:34;0.80;;;0.80;;
6977;SDS011;3529;53.244;10.414;2023-06-26T14:03:01;0.90;;;0.90;;
6977;SDS011;3529;53.244;10.414;2023-06-26T14:05:28;6.10;;;1.02;;
6977;SDS011;3529;53.244;10.414;2023-06-26T14:07:54;1.45;;;0.73;;
6977;SDS011;3529;53.244;10.414;2023-06-26T14:10:21;1.73;;;1.15;;
6977;SDS011;3529;53.244;10.414;2023-06-26T14:12:47;0.90;;;0.90;;
6977;SDS011;3529;53.244;10.414;2023-06-26T14:15:13;1.13;;;1.13;;
6977;SDS011;3529;53.244;10.414;2023-06-26T14:17:39;1.08;;;1.08;;
6977;SDS011;3529;53.244;10.414;2023-06-26T14:20:06;0.85;;;0.80;;
6977;SDS011;3529;53.244;10.414;2023-06-26T14:22:35;0.80;;;0.80;;
6977;SDS011;3529;53.244;10.414;2023-06-26T14:25:02;0.80;;;0.80;;
6977;SDS011;3529;53.244;10.414;2023-06-26T14:27:28;0.98;;;0.95;;
6977;SDS011;3529;53.244;10.414;2023-06-26T14:29:54;0.73;;;0.73;;
6977;SDS011;3529;53.244;10.414;2023-06-26T14:32:20;0.90;;;0.90;;
6977;SDS011;3529;53.244;10.414;2023-06-26T14:34:46;1.00;;;1.00;;
6977;SDS011;3529;53.244;10.414;2023-06-26T14:37:12;1.30;;;0.90;;
6977;SDS011;3529;53.244;10.414;2023-06-26T14:39:38;0.88;;;0.82;;
6977;SDS011;3529;53.244;10.414;2023-06-26T14:42:04;0.90;;;0.90;;
6977;SDS011;3529;53.244;10.414;2023-06-26T14:44:30;10.35;;;1.80;;
6977;SDS011;3529;53.244;10.414;2023-06-26T14:46:56;1.02;;;1.02;;
6977;SDS011;3529;53.244;10.414;2023-06-26T14:49:22;0.70;;;0.70;;
6977;SDS011;3529;53.244;10.414;2023-06-26T14:51:48;0.95;;;0.90;;
6977;SDS011;3529;53.244;10.414;2023-06-26T14:54:14;0.80;;;0.80;;
6977;SDS011;3529;53.244;10.414;2023-06-26T14:56:40;0.98;;;0.98;;
6977;SDS011;3529;53.244;10.414;2023-06-26T14:59:09;0.90;;;0.90;;
6977;SDS011;3529;53.244;10.414;2023-06-26T15:01:35;0.90;;;0.90;;
6977;SDS011;3529;53.244;10.414;2023-06-26T15:04:01;1.20;;;1.10;;
6977;SDS011;3529;53.244;10.414;2023-06-26T15:06:27;0.80;;;0.80;;
6977;SDS011;3529;53.244;10.414;2023-06-26T15:08:53;0.90;;;0.90;;